createdAt,value
2022-09-14T00:01:36.195Z,2.83
2022-09-14T00:04:10.021Z,2.67
2022-09-14T00:06:38.171Z,2.67
2022-09-14T00:09:09.772Z,3.30
2022-09-14T00:11:38.871Z,3.20
2022-09-14T00:14:07.696Z,3.15
2022-09-14T00:16:38.422Z,3.60
2022-09-14T00:19:09.420Z,3.62
2022-09-14T00:21:39.421Z,2.75
2022-09-14T00:24:08.283Z,3.42
2022-09-14T00:26:36.563Z,3.42
2022-09-14T00:29:05.885Z,3.08
2022-09-14T00:31:36.061Z,2.60
2022-09-14T00:34:04.447Z,2.92
2022-09-14T00:36:33.522Z,3.70
2022-09-14T00:39:01.814Z,2.70
2022-09-14T00:41:35.378Z,2.90
2022-09-14T00:44:27.696Z,3.20
2022-09-14T00:46:59.700Z,2.40
2022-09-14T00:49:33.873Z,2.70
2022-09-14T00:52:34.039Z,3.37
2022-09-14T00:55:07.749Z,2.78
2022-09-14T00:57:40.021Z,3.80
2022-09-14T01:00:28.848Z,3.35
2022-09-14T01:02:57.093Z,3.40
2022-09-14T01:05:40.100Z,3.53
2022-09-14T01:08:29.110Z,3.37
2022-09-14T01:11:15.441Z,3.05
2022-09-14T01:14:12.355Z,2.83
2022-09-14T01:16:48.821Z,2.80
2022-09-14T01:19:26.223Z,3.00
2022-09-14T01:21:57.875Z,3.15
2022-09-14T01:24:58.379Z,3.85
2022-09-14T01:27:45.220Z,3.35
2022-09-14T01:30:21.572Z,3.55
2022-09-14T01:33:05.755Z,2.80
2022-09-14T01:35:52.276Z,3.17
2022-09-14T01:38:34.830Z,3.22
2022-09-14T01:41:07.390Z,3.67
2022-09-14T01:43:42.083Z,3.70
2022-09-14T01:46:14.505Z,4.10
2022-09-14T01:48:57.171Z,3.95
2022-09-14T01:51:30.778Z,3.97
2022-09-14T01:54:27.902Z,4.03
2022-09-14T01:57:19.734Z,4.50
2022-09-14T01:59:50.225Z,4.18
2022-09-14T02:02:35.695Z,4.28
2022-09-14T02:05:22.284Z,2.97
2022-09-14T02:07:50.068Z,3.33
2022-09-14T02:10:19.055Z,3.33
2022-09-14T02:12:47.426Z,4.03
2022-09-14T02:15:16.507Z,3.47
2022-09-14T02:17:44.676Z,4.43
2022-09-14T02:20:20.061Z,3.05
2022-09-14T02:22:47.939Z,3.53
2022-09-14T02:25:15.792Z,3.35
2022-09-14T02:27:43.456Z,3.62
2022-09-14T02:30:11.834Z,3.47
2022-09-14T02:32:56.494Z,3.55
2022-09-14T02:35:33.183Z,3.20
2022-09-14T02:38:35.523Z,3.40
2022-09-14T02:41:17.673Z,2.67
2022-09-14T02:44:00.652Z,3.10
2022-09-14T02:46:39.390Z,2.53
2022-09-14T02:49:21.686Z,2.70
2022-09-14T02:52:07.409Z,2.62
2022-09-14T02:54:51.678Z,2.97
2022-09-14T02:57:19.435Z,2.72
2022-09-14T02:59:47.157Z,2.72
2022-09-14T03:02:15.194Z,2.35
2022-09-14T03:04:43.372Z,2.55
2022-09-14T03:07:11.335Z,2.75
2022-09-14T03:09:38.972Z,2.55
2022-09-14T03:12:06.736Z,2.42
2022-09-14T03:14:34.520Z,2.72
2022-09-14T03:17:02.131Z,2.67
2022-09-14T03:19:29.738Z,2.35
2022-09-14T03:21:57.351Z,2.45
2022-09-14T03:24:24.972Z,2.25
2022-09-14T03:26:53.319Z,2.28
2022-09-14T03:29:20.950Z,2.42
2022-09-14T03:31:48.670Z,2.05
2022-09-14T03:34:16.541Z,2.25
2022-09-14T03:36:44.161Z,2.75
2022-09-14T03:39:11.881Z,2.30
2022-09-14T03:41:39.520Z,2.17
2022-09-14T03:44:07.253Z,2.33
2022-09-14T03:46:35.222Z,2.20
2022-09-14T03:49:02.924Z,2.37
2022-09-14T03:51:30.639Z,2.05
2022-09-14T03:53:58.256Z,2.17
2022-09-14T03:56:26.034Z,2.08
2022-09-14T03:58:53.558Z,2.25
2022-09-14T04:01:23.437Z,1.75
2022-09-14T04:03:51.963Z,2.47
2022-09-14T04:06:20.820Z,2.08
2022-09-14T04:08:49.277Z,2.00
2022-09-14T04:11:22.165Z,2.10
2022-09-14T04:13:50.518Z,1.77
2022-09-14T04:16:21.849Z,2.20
2022-09-14T04:18:50.078Z,1.90
2022-09-14T04:21:20.185Z,2.10
2022-09-14T04:24:14.705Z,2.12
2022-09-14T04:26:36.305Z,2.08
2022-09-14T04:29:04.279Z,2.00
2022-09-14T04:31:33.738Z,2.03
2022-09-14T04:34:01.491Z,2.20
2022-09-14T04:36:31.965Z,1.80
2022-09-14T04:39:03.434Z,1.90
2022-09-14T04:41:32.322Z,2.10
2022-09-14T04:44:01.042Z,2.15
2022-09-14T04:46:36.126Z,1.95
2022-09-14T04:49:04.240Z,2.47
2022-09-14T04:51:34.236Z,1.98
2022-09-14T04:54:03.323Z,2.12
2022-09-14T04:56:34.201Z,2.00
2022-09-14T04:59:05.191Z,2.17
2022-09-14T05:01:38.652Z,2.10
2022-09-14T05:04:08.178Z,1.87
2022-09-14T05:06:38.944Z,2.67
2022-09-14T05:09:18.348Z,2.15
2022-09-14T05:11:47.051Z,1.90
2022-09-14T05:14:15.805Z,2.45
2022-09-14T05:16:44.995Z,2.55
2022-09-14T05:19:19.103Z,2.15
2022-09-14T05:21:47.464Z,2.08
2022-09-14T05:24:18.200Z,2.15
2022-09-14T05:26:46.922Z,2.15
2022-09-14T05:29:19.405Z,2.30
2022-09-14T05:31:47.957Z,2.35
2022-09-14T05:34:15.920Z,2.62
2022-09-14T05:36:43.601Z,2.20
2022-09-14T05:39:11.594Z,2.22
2022-09-14T05:41:39.588Z,2.22
2022-09-14T05:44:07.848Z,2.17
2022-09-14T05:46:35.830Z,1.87
2022-09-14T05:49:03.509Z,2.50
2022-09-14T05:51:31.140Z,2.60
2022-09-14T05:54:00.325Z,2.10
2022-09-14T05:56:31.711Z,2.28
2022-09-14T05:59:00.478Z,2.12
2022-09-14T06:01:31.298Z,2.10
2022-09-14T06:04:01.573Z,2.50
2022-09-14T06:06:31.031Z,2.25
2022-09-14T06:08:59.094Z,2.20
2022-09-14T06:11:39.785Z,2.75
2022-09-14T06:14:07.414Z,2.30
2022-09-14T06:16:35.818Z,2.47
2022-09-14T06:19:03.609Z,2.70
2022-09-14T06:21:33.381Z,2.25
2022-09-14T06:24:01.506Z,2.90
2022-09-14T06:26:29.446Z,2.42
2022-09-14T06:28:57.566Z,2.92
2022-09-14T06:31:26.426Z,2.92
2022-09-14T06:33:54.618Z,2.78
2022-09-14T06:36:25.816Z,2.92
2022-09-14T06:38:54.465Z,2.60
2022-09-14T06:41:24.501Z,2.20
2022-09-14T06:43:53.247Z,2.35
2022-09-14T06:46:27.056Z,2.53
2022-09-14T06:49:06.446Z,2.62
2022-09-14T06:51:43.145Z,2.58
2022-09-14T06:54:13.046Z,2.17
2022-09-14T06:56:42.010Z,2.60
2022-09-14T06:59:11.695Z,2.30
2022-09-14T07:01:39.726Z,1.95
2022-09-14T07:04:07.891Z,2.03
2022-09-14T07:07:01.588Z,1.98
2022-09-14T07:09:29.326Z,2.10
2022-09-14T07:11:57.078Z,2.00
2022-09-14T07:14:24.646Z,2.20
2022-09-14T07:16:52.338Z,2.00
2022-09-14T07:19:19.996Z,2.20
2022-09-14T07:21:49.175Z,2.10
2022-09-14T07:24:17.050Z,1.80
2022-09-14T07:26:44.769Z,2.05
2022-09-14T07:29:15.420Z,2.03
2022-09-14T07:31:49.105Z,1.70
2022-09-14T07:34:17.699Z,2.03
2022-09-14T07:36:45.946Z,1.77
2022-09-14T07:39:17.503Z,1.70
2022-09-14T07:41:46.089Z,1.42
2022-09-14T07:44:18.936Z,7.07
2022-09-14T07:46:47.349Z,2.37
2022-09-14T07:49:16.761Z,2.37
2022-09-14T07:51:44.742Z,2.00
2022-09-14T07:54:14.579Z,1.73
2022-09-14T07:56:43.511Z,4.53
2022-09-14T08:02:00.769Z,2.22
2022-09-14T08:04:28.454Z,2.17
2022-09-14T08:06:56.131Z,1.70
2022-09-14T08:09:23.737Z,2.47
2022-09-14T08:11:51.780Z,2.03
2022-09-14T08:14:19.397Z,1.92
2022-09-14T08:16:47.113Z,1.90
2022-09-14T08:19:18.005Z,2.15
2022-09-14T08:21:47.582Z,2.10
2022-09-14T08:24:21.207Z,1.92
2022-09-14T08:26:49.805Z,1.60
2022-09-14T08:29:19.514Z,2.17
2022-09-14T08:31:48.187Z,2.40
2022-09-14T08:34:17.157Z,2.47
2022-09-14T08:36:46.365Z,2.40
2022-09-14T08:39:15.951Z,2.72
2022-09-14T08:41:56.792Z,2.62
2022-09-14T08:44:32.350Z,2.55
2022-09-14T08:47:19.250Z,2.67
2022-09-14T08:50:03.951Z,2.28
2022-09-14T08:52:41.260Z,2.55
2022-09-14T08:55:42.400Z,2.03
2022-09-14T08:58:30.782Z,2.30
2022-09-14T09:01:23.345Z,1.70
2022-09-14T09:04:02.934Z,1.98
2022-09-14T09:06:39.949Z,2.22
2022-09-14T09:09:32.301Z,2.25
2022-09-14T09:12:01.019Z,2.10
2022-09-14T09:14:35.290Z,2.15
2022-09-14T09:17:08.135Z,2.50
2022-09-14T09:19:42.798Z,2.30
2022-09-14T09:22:17.164Z,2.42
2022-09-14T09:24:49.986Z,2.20
2022-09-14T09:27:18.070Z,2.00
2022-09-14T09:29:46.319Z,1.92
2022-09-14T09:32:19.594Z,1.70
2022-09-14T09:34:47.777Z,2.20
2022-09-14T09:37:21.562Z,2.50
2022-09-14T09:39:49.452Z,2.00
2022-09-14T09:42:28.050Z,2.78
2022-09-14T09:45:03.863Z,2.03
2022-09-14T09:47:38.933Z,1.73
2022-09-14T09:50:15.663Z,2.15
2022-09-14T09:52:52.090Z,2.30
2022-09-14T09:55:22.134Z,2.45
2022-09-14T09:57:49.971Z,1.83
2022-09-14T10:00:29.005Z,2.15
2022-09-14T10:02:57.402Z,2.05
2022-09-14T10:05:30.053Z,2.03
2022-09-14T10:08:01.505Z,2.28
2022-09-14T10:10:47.318Z,2.40
2022-09-14T10:13:30.131Z,2.00
2022-09-14T10:16:25.675Z,2.40
2022-09-14T10:18:54.528Z,2.08
2022-09-14T10:21:25.368Z,2.10
2022-09-14T10:24:17.235Z,2.37
2022-09-14T10:26:45.197Z,2.00
2022-09-14T10:29:42.517Z,1.85
2022-09-14T10:32:25.289Z,2.10
2022-09-14T10:34:53.023Z,1.98
2022-09-14T10:37:36.297Z,1.92
2022-09-14T10:40:20.056Z,1.70
2022-09-14T10:43:04.690Z,1.90
2022-09-14T10:46:03.546Z,1.83
2022-09-14T10:48:39.374Z,1.65
2022-09-14T10:51:28.262Z,1.70
2022-09-14T10:54:12.567Z,1.50
2022-09-14T10:57:20.073Z,1.48
2022-09-14T10:59:56.742Z,1.52
2022-09-14T11:02:42.848Z,1.52
2022-09-14T11:05:26.739Z,1.40
2022-09-14T11:07:57.230Z,1.80
2022-09-14T11:10:46.832Z,1.37
2022-09-14T11:13:38.626Z,1.42
2022-09-14T11:16:20.157Z,1.40
2022-09-14T11:18:59.974Z,1.60
2022-09-14T11:21:33.517Z,1.77
2022-09-14T11:24:07.318Z,1.50
2022-09-14T11:26:43.890Z,1.60
2022-09-14T11:29:34.145Z,1.58
2022-09-14T11:32:20.819Z,1.50
2022-09-14T11:34:55.873Z,1.60
2022-09-14T11:37:41.257Z,1.98
2022-09-14T11:40:25.286Z,1.70
2022-09-14T11:43:16.475Z,1.55
2022-09-14T11:45:53.728Z,1.83
2022-09-14T11:48:42.288Z,1.80
2022-09-14T11:51:14.832Z,1.65
2022-09-14T11:53:44.677Z,1.52
2022-09-14T11:56:27.470Z,1.80
2022-09-14T11:58:57.540Z,2.10
2022-09-14T12:01:37.589Z,1.60
2022-09-14T12:04:11.859Z,1.73
2022-09-14T12:06:39.607Z,2.25
2022-09-14T12:09:32.946Z,2.15
2022-09-14T12:12:01.135Z,1.55
2022-09-14T12:14:35.426Z,2.05
2022-09-14T12:17:41.586Z,1.87
2022-09-14T12:20:38.541Z,1.90
2022-09-14T12:23:26.546Z,1.83
2022-09-14T12:25:59.393Z,2.17
2022-09-14T12:28:38.886Z,1.45
2022-09-14T12:31:08.869Z,2.08
2022-09-14T12:33:36.621Z,1.83
2022-09-14T12:36:34.020Z,2.03
2022-09-14T12:39:05.738Z,1.70
2022-09-14T12:41:36.608Z,1.73
2022-09-14T12:44:06.552Z,1.65
2022-09-14T12:46:40.081Z,1.60
2022-09-14T12:49:37.577Z,1.70
2022-09-14T12:52:26.931Z,1.80
2022-09-14T12:55:20.232Z,1.83
2022-09-14T12:58:04.246Z,1.92
2022-09-14T13:00:49.125Z,1.85
2022-09-14T13:13:34.480Z,1.60
2022-09-14T13:16:06.277Z,1.98
2022-09-14T13:18:39.171Z,1.60
2022-09-14T13:21:35.726Z,2.05
2022-09-14T13:24:03.592Z,1.35
2022-09-14T13:26:32.771Z,1.42
2022-09-14T13:29:02.534Z,1.80
2022-09-14T13:31:40.562Z,1.73
2022-09-14T13:34:08.477Z,2.28
2022-09-14T13:36:43.722Z,2.00
2022-09-14T13:39:36.136Z,1.73
2022-09-14T13:42:04.822Z,1.42
2022-09-14T13:44:38.043Z,1.58
2022-09-14T13:47:07.125Z,1.60
2022-09-14T13:49:36.330Z,1.60
2022-09-14T13:52:38.598Z,1.70
2022-09-14T13:55:34.676Z,1.95
2022-09-14T13:58:16.491Z,1.35
2022-09-14T14:01:03.222Z,1.48
2022-09-14T14:03:42.727Z,1.33
2022-09-14T14:06:26.247Z,1.70
2022-09-14T14:09:13.629Z,1.40
2022-09-14T14:11:44.928Z,2.15
2022-09-14T14:14:18.756Z,1.65
2022-09-14T14:17:25.032Z,1.62
2022-09-14T14:19:55.375Z,1.40
2022-09-14T14:22:29.981Z,1.70
2022-09-14T14:25:13.239Z,1.33
2022-09-14T14:27:48.927Z,1.23
2022-09-14T14:30:22.461Z,1.20
2022-09-14T14:32:54.652Z,1.23
2022-09-14T14:35:26.052Z,1.02
2022-09-14T14:37:54.011Z,1.15
2022-09-14T14:40:22.474Z,1.23
2022-09-14T14:42:51.797Z,1.20
2022-09-14T14:45:23.290Z,1.30
2022-09-14T14:47:51.718Z,1.40
2022-09-14T14:50:25.768Z,1.20
2022-09-14T14:52:53.613Z,1.30
2022-09-14T14:55:22.634Z,1.40
2022-09-14T14:57:51.376Z,1.23
2022-09-14T15:00:22.195Z,1.10
2022-09-14T15:02:50.638Z,1.35
2022-09-14T15:05:19.058Z,1.05
2022-09-14T15:07:47.089Z,1.30
2022-09-14T15:10:17.131Z,1.02
2022-09-14T15:12:45.429Z,1.10
2022-09-14T15:15:20.923Z,1.00
2022-09-14T15:17:48.772Z,1.33
2022-09-14T15:20:16.816Z,1.17
2022-09-14T15:22:44.522Z,1.42
2022-09-14T15:25:13.320Z,1.55
2022-09-14T15:27:41.589Z,1.33
2022-09-14T15:30:10.577Z,1.17
2022-09-14T15:32:38.610Z,1.30
2022-09-14T15:35:08.297Z,1.20
2022-09-14T15:37:35.977Z,1.50
2022-09-14T15:40:04.937Z,1.17
2022-09-14T15:42:32.616Z,1.30
2022-09-14T15:45:00.376Z,1.40
2022-09-14T15:47:31.652Z,0.95
2022-09-14T15:50:01.750Z,1.35
2022-09-14T15:52:29.385Z,1.33
2022-09-14T15:54:57.113Z,1.15
2022-09-14T15:57:24.729Z,1.50
2022-09-14T15:59:55.280Z,0.93
2022-09-14T16:02:23.144Z,1.33
2022-09-14T16:04:50.979Z,1.55
2022-09-14T16:07:18.798Z,1.40
2022-09-14T16:09:46.901Z,1.58
2022-09-14T16:12:14.988Z,1.87
2022-09-14T16:14:42.716Z,1.30
2022-09-14T16:17:12.262Z,1.35
2022-09-14T16:19:40.041Z,1.40
2022-09-14T16:22:07.782Z,1.45
2022-09-14T16:24:35.518Z,1.10
2022-09-14T16:27:03.195Z,1.50
2022-09-14T16:29:30.943Z,1.48
2022-09-14T16:31:58.722Z,1.55
2022-09-14T16:34:31.118Z,1.30
2022-09-14T16:36:59.701Z,1.80
2022-09-14T16:39:30.912Z,1.50
2022-09-14T16:41:59.655Z,1.50
2022-09-14T16:44:28.908Z,1.67
2022-09-14T16:46:59.056Z,1.60
2022-09-14T16:49:28.504Z,1.20
2022-09-14T16:51:57.535Z,1.35
2022-09-14T16:54:26.941Z,1.37
2022-09-14T16:56:59.128Z,1.62
2022-09-14T16:59:27.349Z,1.55
2022-09-14T17:01:55.795Z,1.62
2022-09-14T17:04:24.784Z,1.40
2022-09-14T17:06:54.066Z,1.40
2022-09-14T17:09:27.760Z,1.52
2022-09-14T17:11:56.471Z,1.20
2022-09-14T17:14:27.813Z,1.62
2022-09-14T17:16:56.057Z,1.40
2022-09-14T17:19:24.538Z,1.83
2022-09-14T17:21:53.968Z,1.65
2022-09-14T17:24:22.680Z,1.60
2022-09-14T17:26:50.550Z,2.10
2022-09-14T17:29:18.315Z,1.80
2022-09-14T17:31:46.581Z,1.52
2022-09-14T17:34:17.135Z,1.75
2022-09-14T17:36:45.826Z,2.10
2022-09-14T17:39:15.346Z,1.90
2022-09-14T17:41:43.876Z,1.90
2022-09-14T17:44:14.044Z,1.80
2022-09-14T17:46:51.716Z,2.05
2022-09-14T17:49:21.775Z,1.58
2022-09-14T17:51:50.546Z,1.40
2022-09-14T17:54:19.376Z,1.67
2022-09-14T17:56:47.288Z,2.12
2022-09-14T17:59:18.119Z,1.85
2022-09-14T18:01:45.887Z,2.22
2022-09-14T18:04:16.263Z,2.05
2022-09-14T18:06:47.228Z,2.85
2022-09-14T18:09:21.813Z,2.78
2022-09-14T18:11:50.630Z,2.60
2022-09-14T18:14:19.207Z,3.05
2022-09-14T18:16:47.258Z,4.75
2022-09-14T18:19:16.040Z,2.33
2022-09-14T18:21:45.882Z,2.25
2022-09-14T18:24:16.477Z,2.70
2022-09-14T18:26:45.844Z,2.00
2022-09-14T18:29:19.471Z,4.12
2022-09-14T18:31:47.209Z,2.83
2022-09-14T18:34:14.980Z,2.15
2022-09-14T18:36:42.770Z,2.40
2022-09-14T18:39:11.079Z,1.98
2022-09-14T18:41:38.846Z,2.87
2022-09-14T18:44:06.586Z,3.08
2022-09-14T18:46:34.360Z,2.92
2022-09-14T18:49:03.101Z,2.53
2022-09-14T18:51:32.158Z,2.15
2022-09-14T18:54:00.701Z,3.62
2022-09-14T18:56:29.155Z,1.70
2022-09-14T18:58:57.634Z,1.67
2022-09-14T19:01:25.584Z,1.60
2022-09-14T19:03:54.878Z,1.50
2022-09-14T19:06:24.132Z,3.05
2022-09-14T19:08:51.983Z,2.10
2022-09-14T19:11:22.700Z,1.58
2022-09-14T19:13:55.597Z,2.12
2022-09-14T19:16:23.322Z,3.60
2022-09-14T19:18:51.298Z,2.45
2022-09-14T19:21:23.856Z,2.40
2022-09-14T19:24:18.144Z,3.35
2022-09-14T19:26:51.551Z,3.10
2022-09-14T19:29:22.518Z,2.47
2022-09-14T19:31:52.663Z,2.70
2022-09-14T19:34:22.064Z,2.80
2022-09-14T19:36:51.005Z,2.25
2022-09-14T19:39:18.633Z,3.22
2022-09-14T19:41:46.356Z,3.40
2022-09-14T19:44:16.342Z,2.70
2022-09-14T19:46:44.378Z,2.60
2022-09-14T19:49:15.927Z,2.80
2022-09-14T19:51:44.045Z,3.05
2022-09-14T19:54:12.442Z,2.97
2022-09-14T19:56:41.002Z,2.47
2022-09-14T19:59:09.450Z,3.65
2022-09-14T20:01:39.307Z,2.72
2022-09-14T20:04:08.395Z,3.03
2022-09-14T20:06:39.225Z,2.70
2022-09-14T20:09:18.900Z,2.70
2022-09-14T20:11:48.718Z,3.17
2022-09-14T20:14:19.856Z,3.75
2022-09-14T20:16:50.481Z,2.95
2022-09-14T20:19:20.646Z,3.15
2022-09-14T20:21:50.187Z,2.67
2022-09-14T20:24:20.651Z,2.70
2022-09-14T20:26:50.703Z,2.67
2022-09-14T20:29:20.238Z,2.60
2022-09-14T20:31:48.913Z,2.42
2022-09-14T20:34:19.311Z,1.80
2022-09-14T20:36:48.500Z,1.77
2022-09-14T20:39:16.525Z,2.08
2022-09-14T20:41:48.292Z,1.60
2022-09-14T20:44:16.948Z,2.00
2022-09-14T20:46:45.815Z,2.78
2022-09-14T20:49:16.458Z,2.10
2022-09-14T20:51:44.718Z,1.90
2022-09-14T20:54:14.956Z,2.00
2022-09-14T20:56:43.907Z,2.50
2022-09-14T20:59:14.492Z,2.78
2022-09-14T21:01:44.685Z,2.30
2022-09-14T21:04:18.458Z,1.92
2022-09-14T21:06:50.165Z,2.55
2022-09-14T21:09:21.682Z,2.72
2022-09-14T21:11:49.537Z,2.53
2022-09-14T21:14:19.244Z,2.40
2022-09-14T21:16:49.691Z,2.42
2022-09-14T21:19:21.071Z,2.50
2022-09-14T21:21:50.175Z,2.03
2022-09-14T21:24:19.960Z,1.83
2022-09-14T21:26:48.368Z,2.45
2022-09-14T21:29:21.352Z,2.22
2022-09-14T21:31:49.794Z,2.00
2022-09-14T21:34:18.141Z,1.90
2022-09-14T21:36:48.669Z,2.00
2022-09-14T21:39:20.293Z,2.30
2022-09-14T21:41:53.345Z,2.20
2022-09-14T21:44:23.761Z,1.73
2022-09-14T21:46:51.400Z,1.70
2022-09-14T21:49:22.987Z,1.90
2022-09-14T21:51:50.872Z,1.80
2022-09-14T21:54:18.523Z,2.05
2022-09-14T21:56:47.562Z,2.03
2022-09-14T21:59:21.385Z,2.28
2022-09-14T22:01:49.976Z,2.05
2022-09-14T22:04:20.231Z,2.10
2022-09-14T22:06:48.022Z,1.60
2022-09-14T22:09:17.636Z,1.80
2022-09-14T22:11:46.038Z,2.20
2022-09-14T22:14:16.018Z,1.75
2022-09-14T22:16:43.736Z,2.22
2022-09-14T22:19:17.643Z,1.95
2022-09-14T22:21:46.007Z,2.00
2022-09-14T22:24:20.711Z,2.10
2022-09-14T22:26:48.589Z,1.80
2022-09-14T22:29:16.206Z,1.60
2022-09-14T22:31:45.835Z,1.83
2022-09-14T22:34:14.734Z,2.10
2022-09-14T22:36:43.166Z,2.00
2022-09-14T22:39:11.833Z,1.70
2022-09-14T22:41:40.203Z,2.25
2022-09-14T22:44:08.817Z,2.00
2022-09-14T22:46:36.699Z,1.73
2022-09-14T22:49:05.216Z,1.80
2022-09-14T22:51:32.876Z,2.47
2022-09-14T22:54:00.499Z,1.90
2022-09-14T22:56:33.403Z,1.90
2022-09-14T22:59:03.002Z,1.85
2022-09-14T23:01:33.947Z,1.62
2022-09-14T23:04:07.378Z,1.70
2022-09-14T23:06:43.838Z,1.73
2022-09-14T23:09:14.625Z,1.50
2022-09-14T23:11:43.323Z,1.58
2022-09-14T23:14:11.513Z,1.73
2022-09-14T23:16:39.136Z,1.50
2022-09-14T23:19:10.727Z,1.37
2022-09-14T23:21:38.440Z,1.70
2022-09-14T23:24:08.047Z,1.90
2022-09-14T23:26:35.744Z,1.60
2022-09-14T23:29:06.744Z,1.70
2022-09-14T23:31:34.702Z,2.17
2022-09-14T23:34:04.685Z,1.60
2022-09-14T23:36:33.006Z,1.52
2022-09-14T23:39:00.773Z,1.48
2022-09-14T23:41:29.647Z,1.70
2022-09-14T23:43:57.336Z,1.87
2022-09-14T23:46:25.064Z,1.90
2022-09-14T23:48:52.984Z,1.55
2022-09-14T23:51:20.831Z,1.55
2022-09-14T23:53:48.762Z,1.55
2022-09-14T23:56:16.687Z,1.40
2022-09-14T23:58:44.696Z,1.95
